Terminal Aerodrome Forecast
Issued by NWS

Home | Current Version | Previous Version | Text Only | Print | Product List | Glossary On
Versions: 1 2 3 4 5 6 7 8 9 10 11 12 13 14 15 16 17 18 19
000
FTUS41 KBOX 220807 AAA
TAFHYA
TAF AMD
KHYA 220807Z 2208/2306 22008KT 4SM BR OVC006
     FM221300 21010KT P6SM SCT180
     FM221900 20014G23KT P6SM SCT200
     FM230000 21016G23KT P6SM BKN010
     FM230300 21017G28KT 3SM BR BKN010=

USA.gov is the U.S. government's official web portal to all federal, state and local government web resources and services.